Time;durP1;ratioP1;P1;durP2;ratioP2;P2;SDS_P1;SDS_P2;PMS_P1;PMS_P2;Temp;Humidity;BMP_temperature;BMP_pressure;BME280_temperature;BME280_humidity;BME280_pressure;Samples;Min_cycle;Max_cycle;Signal;HPM_P1;HPM_P2
2022/03/16 00:00:23;;;;;;;38.80;24.33;;;5.70;99.90;;;;;;5045773;28;20915;-78
2022/03/16 00:02:49;;;;;;;37.22;21.88;;;4.90;99.90;;;;;;5050660;28;20070;-77
2022/03/16 00:05:15;;;;;;;36.72;22.95;;;4.90;99.90;;;;;;5046715;28;20103;-77
2022/03/16 00:07:41;;;;;;;38.03;23.63;;;4.90;99.90;;;;;;5046525;28;20682;-77
2022/03/16 00:10:08;;;;;;;42.15;25.58;;;5.00;99.90;;;;;;5048231;28;20056;-77
2022/03/16 00:12:38;;;;;;;40.85;24.50;;;4.80;99.90;;;;;;5050489;28;20118;-77
2022/03/16 00:15:04;;;;;;;43.25;26.27;;;4.80;99.90;;;;;;5039505;28;20049;-77
2022/03/16 00:17:30;;;;;;;40.25;25.13;;;4.80;99.90;;;;;;5044451;28;20052;-77
2022/03/16 00:19:56;;;;;;;43.72;25.33;;;4.70;99.90;;;;;;5045170;28;20162;-77
2022/03/16 00:22:21;;;;;;;45.17;26.35;;;4.70;99.90;;;;;;5049117;28;21024;-77
2022/03/16 00:24:47;;;;;;;47.83;26.98;;;4.70;99.90;;;;;;5046844;28;20056;-77
2022/03/16 00:27:13;;;;;;;40.92;25.20;;;4.70;99.90;;;;;;5047750;28;20129;-77
2022/03/16 00:29:38;;;;;;;49.22;26.55;;;4.70;99.90;;;;;;5052382;28;20686;-77
2022/03/16 00:32:04;;;;;;;44.08;25.25;;;4.60;99.90;;;;;;5047719;28;20188;-77
2022/03/16 00:34:31;;;;;;;48.60;27.25;;;4.60;99.90;;;;;;5029117;28;20047;-77
2022/03/16 00:36:57;;;;;;;48.20;26.77;;;4.60;99.90;;;;;;5049592;28;20048;-77
2022/03/16 00:39:22;;;;;;;50.08;27.65;;;4.60;99.90;;;;;;5041992;28;20733;-77
2022/03/16 00:41:48;;;;;;;54.08;28.08;;;4.60;99.90;;;;;;5041913;28;20053;-77
2022/03/16 00:44:14;;;;;;;50.45;27.27;;;4.60;99.90;;;;;;5045656;28;20049;-77
2022/03/16 00:46:41;;;;;;;46.58;25.88;;;4.60;99.90;;;;;;5055517;28;20866;-77
2022/03/16 00:49:06;;;;;;;48.95;26.83;;;4.60;99.90;;;;;;5046295;28;20528;-77
2022/03/16 00:51:32;;;;;;;44.38;26.40;;;4.60;99.90;;;;;;5055245;28;20171;-77
2022/03/16 00:53:58;;;;;;;47.58;26.73;;;4.50;99.90;;;;;;5054471;28;20040;-77
2022/03/16 00:56:24;;;;;;;41.58;25.40;;;4.50;99.90;;;;;;5052515;28;20060;-77
2022/03/16 00:58:49;;;;;;;46.03;24.77;;;4.50;99.90;;;;;;5054636;28;20072;-77
2022/03/16 01:01:15;;;;;;;44.13;25.83;;;4.40;99.90;;;;;;5054650;28;20036;-77
2022/03/16 01:03:41;;;;;;;45.47;25.42;;;4.40;99.90;;;;;;5044826;28;20464;-77
2022/03/16 01:06:20;;;;;;;48.10;27.15;;;4.40;99.90;;;;;;5054401;28;20070;-77
2022/03/16 01:08:46;;;;;;;51.35;26.77;;;4.40;99.90;;;;;;5051005;28;20467;-77
2022/03/16 01:11:12;;;;;;;47.22;26.67;;;4.40;99.90;;;;;;5031797;28;20067;-77
2022/03/16 01:13:39;;;;;;;49.33;27.38;;;3.90;99.90;;;;;;5053560;28;20044;-77
2022/03/16 01:16:04;;;;;;;50.45;28.17;;;4.30;99.90;;;;;;5036158;28;20507;-77
2022/03/16 01:18:30;;;;;;;52.03;27.60;;;4.30;99.90;;;;;;5054269;28;20075;-77
2022/03/16 01:20:56;;;;;;;47.10;26.50;;;5.40;99.90;;;;;;5053072;28;20476;-77
2022/03/16 01:23:22;;;;;;;43.17;26.15;;;4.30;99.90;;;;;;5053518;28;20136;-77
2022/03/16 01:25:47;;;;;;;47.53;26.13;;;4.30;99.90;;;;;;5050844;28;20147;-77
2022/03/16 01:28:13;;;;;;;46.80;27.40;;;4.30;99.90;;;;;;5053309;28;20084;-77
2022/03/16 01:30:38;;;;;;;54.40;29.52;;;4.20;99.90;;;;;;5055088;28;20117;-77
2022/03/16 01:33:04;;;;;;;46.88;25.95;;;4.20;99.90;;;;;;5051797;28;20763;-77
2022/03/16 01:35:30;;;;;;;55.08;29.60;;;5.00;99.90;;;;;;5033251;28;20060;-77
2022/03/16 01:37:55;;;;;;;53.38;28.77;;;5.00;99.90;;;;;;5026804;28;20102;-77
2022/03/16 01:40:21;;;;;;;60.30;29.92;;;5.70;99.90;;;;;;5048934;28;20049;-77
2022/03/16 01:42:47;;;;;;;52.28;29.63;;;4.20;99.90;;;;;;5035600;28;20051;-77
2022/03/16 01:45:12;;;;;;;52.63;29.73;;;4.30;99.90;;;;;;5051781;28;20044;-77
2022/03/16 01:47:38;;;;;;;54.47;29.30;;;4.20;99.90;;;;;;5034249;28;20060;-77
2022/03/16 01:50:04;;;;;;;59.10;29.77;;;4.20;99.90;;;;;;5029913;28;20110;-77
2022/03/16 01:52:31;;;;;;;53.03;29.38;;;4.30;99.90;;;;;;5032857;28;20044;-77
2022/03/16 01:54:58;;;;;;;53.63;29.38;;;4.20;99.90;;;;;;5035241;28;20770;-77
2022/03/16 01:57:24;;;;;;;53.15;28.83;;;4.90;99.90;;;;;;5050090;28;20052;-77
2022/03/16 01:59:50;;;;;;;54.22;27.08;;;4.20;99.90;;;;;;5034567;28;20049;-77
2022/03/16 02:02:16;;;;;;;48.13;25.85;;;4.20;99.90;;;;;;5049876;28;20044;-76
2022/03/16 02:04:43;;;;;;;49.25;26.63;;;4.20;99.90;;;;;;5029888;28;20044;-77
2022/03/16 02:07:09;;;;;;;44.85;25.73;;;4.90;99.90;;;;;;5052577;28;20044;-77
2022/03/16 02:09:35;;;;;;;51.65;27.27;;;4.20;99.90;;;;;;5032392;28;20076;-77
2022/03/16 02:12:01;;;;;;;44.42;25.55;;;4.20;99.90;;;;;;5029308;28;20383;-77
2022/03/16 02:14:27;;;;;;;45.40;24.88;;;4.20;99.90;;;;;;5050219;28;20043;-77
2022/03/16 02:16:56;;;;;;;37.88;23.50;;;4.10;99.90;;;;;;5034943;28;20063;-77
2022/03/16 02:19:22;;;;;;;38.55;21.50;;;4.20;99.90;;;;;;5053912;28;20851;-77
2022/03/16 02:21:54;;;;;;;38.70;24.15;;;4.10;99.90;;;;;;5054357;28;20048;-77
2022/03/16 02:24:20;;;;;;;37.80;22.48;;;4.70;99.90;;;;;;5052267;28;20056;-77
2022/03/16 02:26:46;;;;;;;38.40;22.95;;;4.00;99.90;;;;;;5051368;28;20076;-77
2022/03/16 02:29:11;;;;;;;36.95;22.05;;;5.20;99.90;;;;;;5053892;28;20127;-77
2022/03/16 02:31:37;;;;;;;36.80;21.95;;;4.80;99.90;;;;;;5033347;28;20504;-76
2022/03/16 02:34:02;;;;;;;50.30;27.13;;;3.90;99.90;;;;;;5054050;28;20064;-76
2022/03/16 02:36:28;;;;;;;54.53;28.25;;;5.00;99.90;;;;;;5025379;28;20055;-76
2022/03/16 02:38:53;;;;;;;47.42;26.08;;;3.90;99.90;;;;;;5051545;28;20045;-76
2022/03/16 02:41:19;;;;;;;50.70;27.73;;;3.90;99.90;;;;;;5052403;28;20048;-76
2022/03/16 02:43:45;;;;;;;50.38;27.60;;;4.70;99.90;;;;;;5032920;28;20919;-76
2022/03/16 02:46:10;;;;;;;48.28;26.95;;;3.90;99.90;;;;;;5054752;28;20048;-76
2022/03/16 02:48:36;;;;;;;50.72;26.65;;;3.80;99.90;;;;;;5053944;28;20060;-76
2022/03/16 02:51:02;;;;;;;47.15;27.67;;;3.80;99.90;;;;;;5052581;28;20052;-76
2022/03/16 02:53:27;;;;;;;53.20;27.65;;;4.10;99.90;;;;;;5054281;28;20055;-76
2022/03/16 02:55:53;;;;;;;47.50;26.05;;;3.80;99.90;;;;;;5046792;28;20209;-76
2022/03/16 02:58:18;;;;;;;53.40;27.35;;;3.80;99.90;;;;;;5052182;28;20121;-76
2022/03/16 03:00:44;;;;;;;53.53;27.77;;;3.80;99.90;;;;;;5025382;28;20049;-76
2022/03/16 03:03:10;;;;;;;51.30;27.35;;;3.80;99.90;;;;;;5044476;28;20048;-76
2022/03/16 03:05:36;;;;;;;51.53;27.63;;;3.80;99.90;;;;;;5048336;28;20476;-76
2022/03/16 03:08:02;;;;;;;49.92;27.65;;;3.80;99.90;;;;;;5053842;28;20059;-76
2022/03/16 03:10:28;;;;;;;47.25;25.98;;;3.80;99.90;;;;;;5048181;28;20153;-76
2022/03/16 03:12:53;;;;;;;45.92;26.50;;;3.80;99.90;;;;;;5049213;28;20168;-76
2022/03/16 03:15:19;;;;;;;44.55;25.42;;;3.80;99.90;;;;;;5048017;28;20072;-76
2022/03/16 03:17:45;;;;;;;46.72;25.40;;;3.80;99.90;;;;;;5049768;28;20140;-76
2022/03/16 03:20:12;;;;;;;45.10;25.02;;;3.80;99.90;;;;;;5052916;28;20106;-76
2022/03/16 03:22:38;;;;;;;46.00;23.45;;;4.80;99.90;;;;;;5044955;28;20064;-76
2022/03/16 03:25:05;;;;;;;47.13;27.02;;;3.70;99.90;;;;;;5035112;28;20076;-76
2022/03/16 03:27:32;;;;;;;46.90;24.55;;;3.70;99.90;;;;;;5048065;28;20491;-76
2022/03/16 03:29:58;;;;;;;43.70;23.20;;;2.70;99.90;;;;;;5027553;28;20525;-77
2022/03/16 03:32:23;;;;;;;41.53;22.33;;;3.60;99.90;;;;;;5047589;28;20047;-77
2022/03/16 03:34:51;;;;;;;36.90;21.30;;;3.60;99.90;;;;;;5028153;28;20107;-77
2022/03/16 03:37:18;;;;;;;33.00;19.83;;;3.50;99.90;;;;;;5055588;28;20048;-77
2022/03/16 03:39:44;;;;;;;36.15;19.40;;;3.80;99.90;;;;;;5036576;28;20057;-77
2022/03/16 03:42:10;;;;;;;33.03;19.48;;;3.40;99.90;;;;;;5054769;28;20381;-77
2022/03/16 03:44:37;;;;;;;36.38;19.67;;;3.40;99.90;;;;;;5053889;28;20139;-77
2022/03/16 03:47:07;;;;;;;39.00;21.27;;;3.40;99.90;;;;;;5046782;28;20756;-77
2022/03/16 03:49:38;;;;;;;45.25;21.90;;;3.30;99.90;;;;;;5049823;28;20412;-76
2022/03/16 03:52:05;;;;;;;71.57;22.58;;;3.30;99.90;;;;;;5049487;28;20456;-76
2022/03/16 03:54:31;;;;;;;73.35;21.75;;;3.30;99.90;;;;;;5030013;28;20064;-77
2022/03/16 03:56:56;;;;;;;51.17;20.83;;;3.30;99.90;;;;;;5031714;28;20056;-76
2022/03/16 03:59:25;;;;;;;80.88;21.50;;;3.30;99.90;;;;;;5038509;28;20571;-76
2022/03/16 04:01:51;;;;;;;43.05;20.42;;;3.30;99.90;;;;;;5045482;28;20766;-77
2022/03/16 04:04:17;;;;;;;42.03;21.35;;;3.30;99.90;;;;;;5045323;28;20044;-77
2022/03/16 04:06:43;;;;;;;118.60;25.38;;;3.30;99.90;;;;;;5035949;28;20048;-77
2022/03/16 04:09:09;;;;;;;81.88;25.45;;;3.30;99.90;;;;;;5041482;28;20044;-77
2022/03/16 04:11:35;;;;;;;96.30;26.33;;;3.40;99.90;;;;;;5050063;28;20049;-77
2022/03/16 04:14:00;;;;;;;64.18;25.40;;;3.40;99.90;;;;;;5046325;28;20111;-77
2022/03/16 04:16:26;;;;;;;51.45;23.80;;;3.10;99.90;;;;;;5027293;28;20049;-77
2022/03/16 04:18:52;;;;;;;91.15;26.30;;;3.50;99.90;;;;;;5051181;28;20044;-77
2022/03/16 04:21:17;;;;;;;134.52;28.08;;;3.50;99.90;;;;;;5048357;28;20543;-76
2022/03/16 04:23:43;;;;;;;131.38;27.83;;;3.50;99.90;;;;;;5048620;28;20109;-77
2022/03/16 04:26:09;;;;;;;196.77;29.38;;;3.60;99.90;;;;;;5052110;28;20079;-77
2022/03/16 04:28:34;;;;;;;150.68;27.33;;;3.60;99.90;;;;;;5029204;28;20460;-77
2022/03/16 04:31:00;;;;;;;139.30;27.77;;;3.60;99.90;;;;;;5059961;28;20053;-77
2022/03/16 04:33:27;;;;;;;155.65;29.23;;;3.60;99.90;;;;;;5054876;28;20784;-76
2022/03/16 04:35:53;;;;;;;166.27;26.92;;;3.60;99.90;;;;;;5047623;28;20397;-77
2022/03/16 04:38:19;;;;;;;159.77;27.67;;;3.60;99.90;;;;;;5046798;28;20579;-77
2022/03/16 04:40:48;;;;;;;157.60;29.00;;;3.60;99.90;;;;;;5050016;28;20049;-77
2022/03/16 04:43:14;;;;;;;165.88;28.52;;;3.50;99.90;;;;;;5050253;28;20584;-77
2022/03/16 04:45:39;;;;;;;127.15;25.63;;;3.50;99.90;;;;;;5040111;28;20045;-77
2022/03/16 04:48:08;;;;;;;119.72;26.88;;;3.50;99.90;;;;;;5046762;28;20053;-77
2022/03/16 04:50:37;;;;;;;97.53;24.70;;;3.50;99.90;;;;;;5042555;28;20049;-77
2022/03/16 04:53:02;;;;;;;97.25;24.95;;;3.40;99.90;;;;;;5053103;28;20068;-76
2022/03/16 04:55:28;;;;;;;121.22;25.05;;;3.50;99.90;;;;;;5041963;28;20045;-76
2022/03/16 04:57:54;;;;;;;79.93;24.05;;;3.40;99.90;;;;;;5045158;28;20043;-77
2022/03/16 05:00:20;;;;;;;51.67;24.10;;;3.40;99.90;;;;;;5034751;28;20056;-77
2022/03/16 05:02:46;;;;;;;89.57;27.80;;;3.40;99.90;;;;;;5043562;28;20060;-77
2022/03/16 05:05:11;;;;;;;96.75;28.05;;;3.40;99.90;;;;;;5044777;28;20088;-77
2022/03/16 05:07:38;;;;;;;108.18;28.15;;;3.40;99.90;;;;;;5030764;28;20049;-77
2022/03/16 05:10:07;;;;;;;88.80;28.50;;;3.40;99.90;;;;;;5051829;28;20037;-77
2022/03/16 05:12:39;;;;;;;160.68;32.05;;;3.80;99.90;;;;;;5049376;28;20406;-77
2022/03/16 05:15:07;;;;;;;139.13;30.40;;;3.50;99.90;;;;;;5050738;28;20102;-77
2022/03/16 05:17:34;;;;;;;114.57;29.55;;;3.50;99.90;;;;;;5052542;28;20110;-77
2022/03/16 05:20:00;;;;;;;173.13;31.80;;;3.50;99.90;;;;;;5027094;28;20053;-76
2022/03/16 05:22:25;;;;;;;128.27;30.55;;;3.60;99.90;;;;;;5056128;28;20032;-77
2022/03/16 05:24:51;;;;;;;167.07;30.58;;;3.60;99.90;;;;;;5048334;28;20044;-77
2022/03/16 05:27:19;;;;;;;104.80;28.75;;;4.20;99.90;;;;;;5054084;28;20040;-77
2022/03/16 05:29:45;;;;;;;86.65;27.75;;;3.50;99.90;;;;;;5054632;28;20488;-76
2022/03/16 05:32:10;;;;;;;72.78;28.02;;;3.50;99.90;;;;;;5052786;28;20036;-77
2022/03/16 05:34:36;;;;;;;69.70;27.80;;;3.50;99.90;;;;;;5034794;28;20774;-77
2022/03/16 05:37:02;;;;;;;50.03;26.15;;;3.50;99.90;;;;;;5036824;28;20166;-77
2022/03/16 05:39:27;;;;;;;48.85;26.23;;;3.50;99.90;;;;;;5031861;28;20049;-77
2022/03/16 05:41:53;;;;;;;47.78;27.45;;;3.50;99.90;;;;;;5052339;28;20049;-77
2022/03/16 05:44:19;;;;;;;48.08;27.20;;;3.60;99.90;;;;;;5044177;28;20048;-77
2022/03/16 05:46:44;;;;;;;54.83;28.05;;;3.50;99.90;;;;;;5048766;28;20120;-77
2022/03/16 05:49:10;;;;;;;48.55;26.50;;;3.50;99.90;;;;;;5048783;28;20086;-78
2022/03/16 05:51:35;;;;;;;47.05;26.77;;;3.50;99.90;;;;;;5050538;28;20045;-77
2022/03/16 05:54:01;;;;;;;53.25;28.02;;;3.50;99.90;;;;;;5045148;28;20048;-77
2022/03/16 05:56:27;;;;;;;53.22;28.05;;;3.60;99.90;;;;;;5049492;28;20222;-77
2022/03/16 05:58:52;;;;;;;47.42;26.00;;;3.60;99.90;;;;;;5032310;28;20040;-77
2022/03/16 06:01:18;;;;;;;45.30;25.23;;;3.60;99.90;;;;;;5032190;28;20075;-77
2022/03/16 06:03:44;;;;;;;52.30;27.20;;;3.70;99.90;;;;;;5044618;28;20052;-77
2022/03/16 06:06:09;;;;;;;43.38;25.90;;;3.70;99.90;;;;;;5050567;28;20541;-77
2022/03/16 06:08:35;;;;;;;41.30;24.25;;;3.70;99.90;;;;;;5051195;28;20040;-77
2022/03/16 06:11:00;;;;;;;42.30;25.85;;;3.70;99.90;;;;;;5044983;28;20055;-77
2022/03/16 06:13:26;;;;;;;44.53;26.05;;;3.70;99.90;;;;;;5040374;28;20135;-77
2022/03/16 06:15:52;;;;;;;47.85;25.63;;;3.70;99.90;;;;;;5055271;28;20496;-77
2022/03/16 06:18:17;;;;;;;47.75;27.42;;;3.70;99.90;;;;;;5031311;28;20055;-77
2022/03/16 06:20:43;;;;;;;50.78;29.27;;;3.70;99.90;;;;;;5028302;28;20055;-77
2022/03/16 06:23:08;;;;;;;48.67;27.35;;;3.70;99.90;;;;;;5041834;28;20044;-77
2022/03/16 06:25:35;;;;;;;45.38;26.60;;;3.80;99.90;;;;;;5046437;28;20698;-79
2022/03/16 06:28:01;;;;;;;46.47;24.00;;;3.80;99.90;;;;;;5047300;28;20061;-77
2022/03/16 06:30:27;;;;;;;41.65;24.33;;;3.80;99.90;;;;;;5048168;28;20045;-77
2022/03/16 06:32:53;;;;;;;44.95;22.15;;;3.80;99.90;;;;;;5048113;28;20052;-76
2022/03/16 06:35:19;;;;;;;39.67;22.90;;;3.80;99.90;;;;;;5047191;28;20159;-78
2022/03/16 06:37:45;;;;;;;36.30;23.08;;;3.80;99.90;;;;;;5053554;28;20148;-76
2022/03/16 06:40:13;;;;;;;36.00;22.45;;;3.80;99.90;;;;;;5053070;28;20765;-76
2022/03/16 06:42:58;;;;;;;37.75;23.10;;;3.80;99.90;;;;;;5050466;28;20041;-77
2022/03/16 06:45:25;;;;;;;41.47;24.00;;;3.90;99.90;;;;;;5053125;28;20059;-76
2022/03/16 06:47:54;;;;;;;38.47;22.90;;;3.90;99.90;;;;;;5052100;28;20052;-76
2022/03/16 06:50:20;;;;;;;51.50;25.05;;;3.90;99.90;;;;;;5046646;28;20098;-77
2022/03/16 06:52:47;;;;;;;44.95;23.38;;;3.90;99.90;;;;;;5048290;28;20056;-77
2022/03/16 06:55:13;;;;;;;39.50;23.63;;;4.00;99.90;;;;;;5051788;28;20067;-76
2022/03/16 06:57:39;;;;;;;39.60;24.50;;;5.00;99.90;;;;;;5052793;28;20503;-77
2022/03/16 07:00:07;;;;;;;43.25;24.40;;;4.10;99.90;;;;;;5054002;28;20063;-76
2022/03/16 07:02:47;;;;;;;48.42;26.42;;;4.10;99.90;;;;;;5040272;28;20041;-77
2022/03/16 07:05:13;;;;;;;49.95;25.25;;;4.20;99.90;;;;;;5054114;28;20136;-77
2022/03/16 07:07:38;;;;;;;47.30;26.23;;;4.20;99.90;;;;;;5052934;28;20090;-80
2022/03/16 07:10:04;;;;;;;50.20;28.02;;;4.20;99.90;;;;;;5053721;28;20107;-80
2022/03/16 07:12:30;;;;;;;49.45;27.70;;;4.20;99.90;;;;;;5055060;28;20049;-79
2022/03/16 07:14:55;;;;;;;50.38;28.15;;;4.30;99.90;;;;;;5035838;28;20107;-79
2022/03/16 07:17:21;;;;;;;48.67;27.70;;;4.30;99.90;;;;;;5054323;28;20056;-82
2022/03/16 07:19:46;;;;;;;50.00;28.73;;;4.40;99.90;;;;;;5046209;28;20045;-83
2022/03/16 07:22:12;;;;;;;54.75;30.00;;;4.40;99.90;;;;;;5053566;28;20052;-82
2022/03/16 07:24:38;;;;;;;57.92;31.48;;;4.50;99.90;;;;;;5053401;28;20057;-82
2022/03/16 07:27:06;;;;;;;57.13;31.05;;;4.50;99.90;;;;;;5032322;28;20049;-81
2022/03/16 07:29:32;;;;;;;57.08;29.60;;;4.60;99.90;;;;;;5037143;28;20053;-80
2022/03/16 07:31:58;;;;;;;57.42;31.08;;;4.60;99.90;;;;;;5055743;28;20047;-80
2022/03/16 07:34:26;;;;;;;57.85;30.58;;;4.70;99.90;;;;;;5055810;28;20725;-80
2022/03/16 07:36:52;;;;;;;53.90;29.73;;;4.70;99.90;;;;;;5051405;28;20045;-81
2022/03/16 07:39:18;;;;;;;54.47;31.67;;;4.70;99.90;;;;;;5055450;28;20037;-82
2022/03/16 07:41:43;;;;;;;56.30;31.60;;;4.80;99.90;;;;;;5039379;28;20048;-74
2022/03/16 07:44:09;;;;;;;54.22;30.73;;;4.90;99.90;;;;;;5056422;28;20071;-79
2022/03/16 07:46:34;;;;;;;55.30;31.17;;;4.90;99.90;;;;;;5048034;28;20053;-76
2022/03/16 07:49:00;;;;;;;51.25;31.25;;;5.00;99.90;;;;;;5053685;28;20056;-75
2022/03/16 07:51:26;;;;;;;55.53;30.98;;;5.10;99.90;;;;;;5053258;28;20048;-79
2022/03/16 07:53:51;;;;;;;56.95;31.40;;;5.10;99.90;;;;;;5050077;28;20122;-76
2022/03/16 07:56:17;;;;;;;54.42;30.95;;;5.10;99.90;;;;;;5050743;28;20048;-75
2022/03/16 07:58:45;;;;;;;54.78;31.50;;;5.20;99.90;;;;;;5032855;28;20052;-74
2022/03/16 08:01:11;;;;;;;49.20;30.08;;;5.30;99.90;;;;;;5029300;28;20156;-73
2022/03/16 08:03:36;;;;;;;51.10;29.95;;;5.30;99.90;;;;;;5046098;28;20042;-74
2022/03/16 08:06:03;;;;;;;54.55;30.23;;;5.40;99.90;;;;;;5050189;28;20060;-74
2022/03/16 08:08:29;;;;;;;51.20;30.88;;;5.40;99.90;;;;;;5040420;28;20064;-78
2022/03/16 08:10:55;;;;;;;56.50;31.98;;;5.50;99.90;;;;;;5034051;28;20029;-73
2022/03/16 08:13:21;;;;;;;57.05;32.42;;;5.60;99.90;;;;;;5050017;28;20048;-74
2022/03/16 08:15:46;;;;;;;59.40;32.28;;;5.60;99.90;;;;;;5054605;28;20097;-74
2022/03/16 08:18:12;;;;;;;50.47;31.15;;;5.80;99.90;;;;;;5053556;28;20495;-76
2022/03/16 08:20:38;;;;;;;55.80;31.30;;;5.80;99.90;;;;;;5052436;28;20048;-76
2022/03/16 08:23:04;;;;;;;49.15;30.52;;;5.80;99.90;;;;;;5050504;28;20136;-71
2022/03/16 08:25:30;;;;;;;55.55;32.05;;;5.90;99.90;;;;;;5055435;28;20050;-71
2022/03/16 08:27:55;;;;;;;54.17;32.15;;;6.00;99.90;;;;;;5036878;28;20416;-71
2022/03/16 08:30:21;;;;;;;60.17;33.08;;;6.10;99.90;;;;;;5052065;28;20506;-72
2022/03/16 08:32:46;;;;;;;54.67;32.15;;;6.10;99.90;;;;;;5049346;28;20140;-71
2022/03/16 08:35:12;;;;;;;51.67;31.58;;;6.20;99.90;;;;;;5049706;28;20176;-72
2022/03/16 08:37:38;;;;;;;54.90;31.77;;;6.20;99.90;;;;;;5048585;28;20106;-71
2022/03/16 08:40:05;;;;;;;54.40;32.35;;;6.30;99.90;;;;;;5031643;28;20049;-71
2022/03/16 08:42:31;;;;;;;56.42;32.97;;;6.30;99.90;;;;;;5043652;28;20541;-71
2022/03/16 08:44:57;;;;;;;60.63;32.90;;;6.40;99.90;;;;;;5042319;28;20055;-72
2022/03/16 08:47:22;;;;;;;69.45;34.63;;;6.50;99.90;;;;;;5047215;28;20386;-71
2022/03/16 08:49:55;;;;;;;61.53;35.05;;;6.70;99.90;;;;;;5045160;28;20057;-71
2022/03/16 08:52:21;;;;;;;60.40;35.20;;;6.80;99.90;;;;;;5026299;28;20057;-71
2022/03/16 08:54:47;;;;;;;61.85;33.90;;;6.90;99.90;;;;;;5055638;28;20047;-72
2022/03/16 08:57:14;;;;;;;55.03;32.03;;;7.00;99.90;;;;;;5055663;28;20463;-72
2022/03/16 08:59:41;;;;;;;57.13;32.55;;;7.10;99.90;;;;;;5051682;28;20080;-72
2022/03/16 09:02:07;;;;;;;57.53;32.13;;;7.20;99.90;;;;;;5052596;28;20041;-72
2022/03/16 09:04:34;;;;;;;54.15;30.98;;;7.30;99.90;;;;;;5045558;28;20578;-72
2022/03/16 09:07:00;;;;;;;48.38;29.42;;;7.40;99.90;;;;;;5053669;28;20051;-72
2022/03/16 09:09:26;;;;;;;52.08;29.50;;;7.50;99.90;;;;;;5048061;28;20044;-72
2022/03/16 09:11:51;;;;;;;53.45;29.27;;;7.60;99.90;;;;;;5051936;28;20498;-72
2022/03/16 09:14:17;;;;;;;53.50;31.40;;;7.70;99.90;;;;;;5050841;28;20035;-72
2022/03/16 09:16:45;;;;;;;48.65;29.05;;;7.80;99.90;;;;;;5049914;28;20164;-71
2022/03/16 09:19:15;;;;;;;47.70;28.83;;;8.00;99.90;;;;;;5026778;28;20052;-72
2022/03/16 09:21:43;;;;;;;44.35;26.83;;;8.10;99.90;;;;;;5048999;28;20729;-72
2022/03/16 09:24:10;;;;;;;46.78;27.23;;;8.30;99.90;;;;;;5051649;28;20590;-71
2022/03/16 09:26:36;;;;;;;43.53;26.98;;;8.40;99.90;;;;;;5042437;28;20582;-72
2022/03/16 09:29:02;;;;;;;39.72;25.73;;;8.60;99.90;;;;;;5050196;28;20041;-71
2022/03/16 09:31:28;;;;;;;40.92;25.10;;;8.80;99.90;;;;;;5045940;28;20040;-72
2022/03/16 09:33:53;;;;;;;44.67;25.00;;;8.90;99.90;;;;;;5034324;28;20040;-72
2022/03/16 09:36:19;;;;;;;37.30;24.52;;;9.00;99.90;;;;;;5048355;28;20091;-71
2022/03/16 09:38:45;;;;;;;41.67;23.70;;;9.20;99.90;;;;;;5045776;28;20041;-72
2022/03/16 09:41:11;;;;;;;37.63;21.90;;;9.40;99.90;;;;;;5050207;28;20893;-71
2022/03/16 09:43:37;;;;;;;35.38;21.65;;;9.60;99.90;;;;;;5049355;28;20045;-71
2022/03/16 09:46:07;;;;;;;33.38;19.92;;;9.80;99.90;;;;;;5039287;28;20045;-71
2022/03/16 09:48:33;;;;;;;32.75;20.23;;;10.00;99.90;;;;;;5043033;28;20057;-71
2022/03/16 09:50:58;;;;;;;28.77;18.98;;;10.10;99.90;;;;;;5050359;28;20092;-72
2022/03/16 09:53:26;;;;;;;27.40;18.98;;;10.30;99.90;;;;;;5032122;28;20088;-71
2022/03/16 09:55:53;;;;;;;29.83;18.55;;;10.40;99.90;;;;;;5046990;28;20048;-72
2022/03/16 09:58:22;;;;;;;28.98;16.88;;;10.60;99.90;;;;;;5047848;28;20048;-72
2022/03/16 10:00:48;;;;;;;27.13;15.02;;;10.70;99.90;;;;;;5054772;28;20045;-71
2022/03/16 10:03:15;;;;;;;24.67;14.57;;;10.80;99.90;;;;;;5025282;28;20045;-72
2022/03/16 10:05:44;;;;;;;22.13;14.57;;;10.90;99.90;;;;;;5042696;28;20049;-72
2022/03/16 10:08:10;;;;;;;21.88;14.65;;;11.00;99.90;;;;;;5050620;28;20090;-71
2022/03/16 10:13:22;;;;;;;23.88;14.07;;;11.10;99.90;;;;;;5059776;28;20052;-71
2022/03/16 10:15:49;;;;;;;23.77;15.95;;;11.30;99.90;;;;;;5037347;28;20051;-71
2022/03/16 10:18:16;;;;;;;22.42;13.25;;;11.40;99.90;;;;;;5058372;28;20044;-71
2022/03/16 10:20:42;;;;;;;20.15;12.43;;;11.50;99.90;;;;;;5053037;28;20055;-73
2022/03/16 10:23:12;;;;;;;17.40;11.23;;;12.20;99.90;;;;;;5037108;28;20049;-75
2022/03/16 10:25:46;;;;;;;17.48;11.38;;;11.70;99.90;;;;;;5054428;28;20613;-76
2022/03/16 10:28:25;;;;;;;14.20;9.50;;;11.90;99.90;;;;;;5027952;28;20140;-76
2022/03/16 10:30:56;;;;;;;16.17;10.02;;;11.90;99.90;;;;;;5047852;28;20095;-76
2022/03/16 10:33:29;;;;;;;17.52;10.75;;;12.10;99.90;;;;;;5033854;28;20045;-76
2022/03/16 10:36:05;;;;;;;15.98;9.93;;;12.20;99.90;;;;;;5030518;28;20053;-76
2022/03/16 10:38:58;;;;;;;14.68;9.68;;;12.30;99.90;;;;;;5029930;28;20082;-76
2022/03/16 10:47:15;;;;;;;18.75;9.63;;;12.30;99.90;;;;;;5053749;28;20500;-76
2022/03/16 10:49:42;;;;;;;19.88;11.38;;;12.60;99.90;;;;;;5046016;28;20085;-76
2022/03/16 10:52:15;;;;;;;21.52;11.65;;;12.60;99.90;;;;;;5025808;28;20052;-76
2022/03/16 10:54:42;;;;;;;18.35;11.68;;;12.60;99.90;;;;;;5055806;28;20087;-76
2022/03/16 10:57:10;;;;;;;20.65;12.50;;;12.60;99.90;;;;;;5044190;28;20052;-76
2022/03/16 10:59:37;;;;;;;22.20;13.02;;;12.60;99.90;;;;;;5049087;28;20049;-76
2022/03/16 11:02:12;;;;;;;19.33;11.82;;;12.60;99.90;;;;;;5047213;28;20048;-76
2022/03/16 11:04:39;;;;;;;20.77;12.20;;;12.60;99.90;;;;;;5044523;28;20807;-76
2022/03/16 11:07:06;;;;;;;18.90;12.77;;;12.70;99.90;;;;;;5036182;28;20056;-76
2022/03/16 11:09:34;;;;;;;20.27;13.18;;;12.80;99.90;;;;;;5045506;28;20613;-77
2022/03/16 11:14:48;;;;;;;23.63;12.18;;;13.10;99.90;;;;;;5054661;28;20056;-74
2022/03/16 11:17:14;;;;;;;21.23;13.07;;;13.20;99.90;;;;;;5030405;28;20048;-79
2022/03/16 11:19:46;;;;;;;22.83;12.50;;;13.30;99.90;;;;;;5056993;28;20571;-72
2022/03/16 11:22:15;;;;;;;18.67;11.18;;;13.30;99.90;;;;;;5053371;28;20036;-73
2022/03/16 11:24:47;;;;;;;21.42;12.82;;;13.40;99.90;;;;;;5055587;28;20048;-74
2022/03/16 11:27:15;;;;;;;20.33;12.82;;;13.50;99.90;;;;;;5058446;28;20139;-77
2022/03/16 11:30:00;;;;;;;23.25;13.38;;;13.50;99.90;;;;;;5055140;28;20480;-75
2022/03/16 11:32:34;;;;;;;23.38;13.23;;;13.60;99.90;;;;;;5033384;28;20045;-77
2022/03/16 11:35:02;;;;;;;19.67;12.82;;;13.60;99.90;;;;;;5036258;28;20064;-76
2022/03/16 11:37:34;;;;;;;23.08;12.63;;;13.70;99.90;;;;;;5048361;28;20053;-77
2022/03/16 11:40:09;;;;;;;19.98;12.98;;;13.80;99.90;;;;;;5030387;28;20166;-77
2022/03/16 11:42:35;;;;;;;19.75;12.35;;;14.00;99.90;;;;;;5058419;28;20052;-77
2022/03/16 11:45:41;;;;;;;21.88;11.63;;;14.10;99.90;;;;;;5054819;28;20113;-77
2022/03/16 11:48:28;;;;;;;18.90;11.35;;;14.30;98.30;;;;;;5058265;28;20169;-77
2022/03/16 11:51:09;;;;;;;18.50;10.80;;;14.40;99.40;;;;;;5055839;28;20866;-76
2022/03/16 11:56:25;;;;;;;18.85;11.73;;;14.70;97.60;;;;;;5048593;28;20460;-77
2022/03/16 11:59:00;;;;;;;19.27;11.27;;;14.80;98.10;;;;;;5032302;28;20191;-76
2022/03/16 12:01:32;;;;;;;18.90;11.70;;;14.90;97.60;;;;;;5029169;28;20140;-77
2022/03/16 12:03:59;;;;;;;18.35;11.18;;;15.00;95.80;;;;;;5029869;28;20051;-76
2022/03/16 12:06:30;;;;;;;16.25;10.85;;;14.90;94.70;;;;;;5052926;28;20131;-77
2022/03/16 12:08:59;;;;;;;17.65;11.00;;;14.90;95.20;;;;;;5055383;28;20033;-76
2022/03/16 12:14:10;;;;;;;;;;;14.90;95.30;;;;;;5052495;28;20072;-76
2022/03/16 12:16:42;;;;;;;18.77;11.63;;;15.00;95.70;;;;;;5050344;28;20027;-76
2022/03/16 12:19:30;;;;;;;19.65;11.60;;;15.00;95.30;;;;;;5052781;28;20040;-76
2022/03/16 12:21:57;;;;;;;18.92;10.40;;;15.10;94.30;;;;;;5056574;28;20041;-76
2022/03/16 12:30:06;;;;;;;17.75;11.65;;;15.30;95.60;;;;;;5042781;28;20607;-76
2022/03/16 12:32:35;;;;;;;21.25;12.23;;;15.30;94.40;;;;;;5036393;28;20047;-76
2022/03/16 12:35:03;;;;;;;19.92;13.40;;;15.30;95.10;;;;;;5056270;28;20037;-75
2022/03/16 12:37:29;;;;;;;16.40;11.48;;;15.30;94.10;;;;;;5055533;28;20079;-75
2022/03/16 12:39:56;;;;;;;19.25;12.27;;;15.40;95.70;;;;;;5058104;28;20482;-76
2022/03/16 12:42:34;;;;;;;17.83;11.93;;;15.50;94.10;;;;;;5055750;28;20032;-75
2022/03/16 12:45:12;;;;;;;18.10;11.57;;;15.40;93.40;;;;;;5054531;28;20051;-75
2022/03/16 12:47:43;;;;;;;20.20;11.93;;;15.50;92.90;;;;;;5052912;28;20673;-77
2022/03/16 12:50:12;;;;;;;18.88;11.40;;;15.50;92.90;;;;;;5052732;28;20040;-75
2022/03/16 12:52:39;;;;;;;17.98;11.35;;;15.60;93.50;;;;;;5058457;28;20052;-77
2022/03/16 12:55:15;;;;;;;18.15;11.75;;;15.60;92.10;;;;;;5036809;28;20480;-77